Time;durP1;ratioP1;P1;durP2;ratioP2;P2;SDS_P1;SDS_P2;PMS_P1;PMS_P2;Temp;Humidity;BMP_temperature;BMP_pressure;BME280_temperature;BME280_humidity;BME280_pressure;Samples;Min_cycle;Max_cycle;Signal;HPM_P1;HPM_P2
2024/04/01 00:02:27;;;;;;;6.10;3.22;;;10.60;99.90;;;11.43;93.54;95783.47;10314330;28;20246;-66
2024/04/01 00:07:29;;;;;;;5.07;3.25;;;10.60;99.90;;;11.43;92.84;95773.25;10356048;28;20315;-67
2024/04/01 00:12:32;;;;;;;5.90;3.13;;;10.60;99.90;;;11.37;93.03;95745.00;10335704;28;20310;-67
2024/04/01 00:17:34;;;;;;;6.47;3.33;;;10.60;99.90;;;11.46;93.16;95763.94;10343317;28;20266;-66
2024/04/01 00:22:37;;;;;;;6.10;3.53;;;10.60;99.90;;;11.45;93.31;95761.38;10319265;28;20266;-66
2024/04/01 00:27:40;;;;;;;4.35;2.85;;;10.60;99.90;;;11.26;93.21;95763.53;10324832;28;20253;-68
2024/04/01 00:32:42;;;;;;;5.97;3.10;;;10.50;99.90;;;11.33;93.24;95759.44;10339351;28;20246;-64
2024/04/01 00:37:45;;;;;;;7.28;3.60;;;10.50;99.90;;;11.28;92.57;95763.59;10354616;28;20253;-66
2024/04/01 00:42:48;;;;;;;5.07;2.80;;;10.40;99.90;;;11.32;92.23;95738.94;10335703;28;20254;-65
2024/04/01 00:47:50;;;;;;;5.28;3.10;;;10.50;99.90;;;11.38;93.07;95727.09;10338892;28;20747;-65
2024/04/01 00:52:53;;;;;;;6.65;3.60;;;10.60;99.90;;;11.55;92.57;95713.78;10320365;28;20722;-65
2024/04/01 00:58:00;;;;;;;7.25;3.33;;;10.70;99.90;;;11.39;93.01;95671.69;10335621;28;20322;-66
2024/04/01 01:03:04;;;;;;;5.72;2.83;;;10.60;99.90;;;11.42;93.99;95659.84;10321582;28;20254;-66
2024/04/01 01:08:07;;;;;;;6.32;3.60;;;10.60;99.90;;;11.43;93.25;95655.59;10333248;28;20266;-66
2024/04/01 01:13:11;;;;;;;11.25;4.15;;;10.60;99.90;;;11.37;94.11;95624.78;10312083;28;20560;-67
2024/04/01 01:18:13;;;;;;;5.95;3.38;;;10.50;99.90;;;11.33;94.43;95571.84;10312903;28;20269;-67
2024/04/01 01:23:17;;;;;;;7.22;3.75;;;10.50;99.90;;;11.32;95.53;95559.91;10348543;28;20261;-67
2024/04/01 01:28:19;;;;;;;6.63;3.67;;;10.50;99.90;;;11.32;95.36;95529.22;10324585;28;20324;-65
2024/04/01 01:33:21;;;;;;;6.38;3.03;;;10.50;99.90;;;11.26;95.50;95530.84;10317699;28;20314;-66
2024/04/01 01:38:25;;;;;;;11.05;3.40;;;10.40;99.90;;;11.24;95.10;95540.16;10346763;28;20301;-66
2024/04/01 01:43:27;;;;;;;6.63;2.78;;;10.40;99.90;;;11.01;96.03;95523.59;10345963;28;20654;-65
2024/04/01 01:48:29;;;;;;;5.10;2.88;;;10.20;99.90;;;11.21;95.46;95558.00;10351182;28;20635;-67
2024/04/01 01:53:32;;;;;;;6.68;2.83;;;10.30;99.90;;;11.05;95.99;95550.94;10324530;28;20793;-66
2024/04/01 01:58:34;;;;;;;8.98;3.55;;;10.30;99.90;;;10.97;96.85;95557.59;10341468;28;20250;-68
2024/04/01 02:03:37;;;;;;;7.80;3.33;;;10.20;99.90;;;11.09;97.35;95541.63;10322495;28;20848;-67
2024/04/01 02:08:41;;;;;;;5.68;3.63;;;10.20;99.90;;;11.01;96.41;95554.25;10302173;28;20322;-67
2024/04/01 02:13:43;;;;;;;4.70;3.10;;;10.10;99.90;;;10.88;97.55;95545.53;10318670;28;20768;-66
2024/04/01 02:18:46;;;;;;;7.05;4.07;;;10.00;99.90;;;10.76;98.35;95558.94;10316602;28;20238;-65
2024/04/01 02:23:50;;;;;;;5.85;3.60;;;9.90;99.90;;;10.71;98.87;95560.53;10313789;28;20384;-66
2024/04/01 02:28:52;;;;;;;8.82;3.50;;;9.90;99.90;;;10.70;98.21;95507.72;10316574;28;20857;-68
2024/04/01 02:33:54;;;;;;;8.32;3.38;;;9.90;99.90;;;10.65;98.73;95481.22;10313764;28;20234;-64
2024/04/01 02:38:58;;;;;;;7.80;4.15;;;9.80;99.90;;;10.63;99.50;95500.75;10295227;28;20234;-66
2024/04/01 02:44:00;;;;;;;7.35;3.38;;;9.80;99.90;;;10.63;98.94;95531.41;10305508;28;20405;-65
2024/04/01 02:49:04;;;;;;;6.68;3.50;;;9.70;99.90;;;10.36;98.66;95541.97;10313160;28;20241;-67
2024/04/01 02:54:09;;;;;;;6.93;3.47;;;9.50;99.90;;;10.40;99.86;95522.47;10299170;28;20321;-69
2024/04/01 02:59:11;;;;;;;7.45;3.78;;;9.50;99.90;;;10.42;99.34;95505.50;10334567;28;20305;-67
2024/04/01 03:04:14;;;;;;;7.18;3.50;;;9.50;99.90;;;10.37;99.87;95490.91;10334408;28;20313;-68
2024/04/01 03:09:17;;;;;;;6.65;3.50;;;9.60;99.90;;;10.53;99.92;95509.97;10351972;28;20301;-65
2024/04/01 03:14:20;;;;;;;5.93;3.50;;;9.60;99.90;;;10.39;99.32;95501.19;10343003;28;20313;-66
2024/04/01 03:19:22;;;;;;;8.27;3.63;;;9.50;99.90;;;10.26;99.53;95464.28;10341470;28;20714;-68
2024/04/01 03:24:26;;;;;;;6.72;3.35;;;9.40;99.90;;;10.28;100.00;95449.91;10354438;28;20320;-68
2024/04/01 03:29:28;;;;;;;6.13;3.75;;;9.50;99.90;;;10.28;100.00;95472.88;10341703;28;20678;-68
2024/04/01 03:34:30;;;;;;;7.82;3.40;;;9.50;99.90;;;10.31;100.00;95495.91;10333388;28;20310;-68
2024/04/01 03:39:34;;;;;;;4.80;3.38;;;9.50;99.90;;;10.23;100.00;95504.22;10314151;28;20237;-68
2024/04/01 03:44:36;;;;;;;5.43;3.50;;;9.40;99.90;;;10.21;100.00;95511.81;10335520;28;20678;-69
2024/04/01 03:49:39;;;;;;;7.47;3.55;;;9.40;99.90;;;10.25;100.00;95515.34;10344588;28;20321;-68
2024/04/01 03:54:43;;;;;;;9.90;3.88;;;9.40;99.90;;;10.26;100.00;95529.81;10316057;28;20297;-68
2024/04/01 03:59:45;;;;;;;8.48;4.10;;;9.40;99.90;;;10.28;100.00;95500.97;10363419;22;20260;-68
2024/04/01 04:04:47;;;;;;;4.50;3.85;;;9.40;99.90;;;10.27;100.00;95489.03;10403794;28;21992;-68
2024/04/01 04:09:51;;;;;;;7.72;4.30;;;9.40;99.90;;;10.26;100.00;95469.38;10415364;28;20312;-68
2024/04/01 04:14:53;;;;;;;6.43;4.20;;;9.40;99.90;;;10.25;100.00;95498.31;10423156;28;20316;-68
2024/04/01 04:19:55;;;;;;;7.72;3.38;;;9.40;99.90;;;10.10;100.00;95447.84;10406275;28;20319;-67
2024/04/01 04:24:59;;;;;;;6.82;3.95;;;9.30;99.90;;;10.11;100.00;95453.78;10414771;28;20660;-68
2024/04/01 04:30:01;;;;;;;6.05;3.60;;;9.30;99.90;;;10.16;100.00;95467.50;10423977;28;20371;-68
2024/04/01 04:35:03;;;;;;;7.53;3.90;;;9.30;99.90;;;10.18;100.00;95475.19;10394711;28;20581;-68
2024/04/01 04:40:10;;;;;;;8.23;3.95;;;9.40;99.90;;;10.15;100.00;95465.75;10361694;28;20324;-67
2024/04/01 04:45:12;;;;;;;9.48;4.15;;;9.30;99.90;;;10.16;100.00;95444.53;10399228;28;20360;-67
2024/04/01 04:50:14;;;;;;;9.10;3.75;;;9.30;99.90;;;10.11;100.00;95464.84;10400811;28;20311;-68
2024/04/01 04:55:18;;;;;;;7.10;4.20;;;9.40;99.90;;;10.33;100.00;95453.41;10398233;28;20324;-67
2024/04/01 05:00:23;;;;;;;6.32;3.00;;;9.30;99.90;;;10.14;100.00;95462.34;10402546;28;20328;-67
2024/04/01 05:05:25;;;;;;;9.50;4.00;;;9.30;99.90;;;10.18;100.00;95470.94;10401788;28;20339;-69
2024/04/01 05:10:29;;;;;;;4.97;3.20;;;9.30;99.90;;;10.20;100.00;95478.63;10397990;28;21116;-67
2024/04/01 05:15:32;;;;;;;7.43;3.55;;;9.40;99.90;;;10.18;100.00;95486.25;10422283;28;20332;-68
2024/04/01 05:20:34;;;;;;;7.05;3.88;;;9.30;99.90;;;10.20;100.00;95487.16;10403619;28;20340;-68
2024/04/01 05:25:37;;;;;;;7.07;3.50;;;9.40;99.90;;;10.19;100.00;95518.63;10397277;28;20316;-67
2024/04/01 05:30:39;;;;;;;8.15;4.60;;;9.40;99.90;;;10.27;100.00;95531.56;10401164;28;20308;-69
2024/04/01 05:35:42;;;;;;;5.82;4.03;;;9.50;99.90;;;10.34;100.00;95554.69;10402630;28;20304;-67
2024/04/01 05:40:45;;;;;;;6.20;3.97;;;9.50;99.90;;;10.40;100.00;95578.63;10398669;28;20279;-68
2024/04/01 05:45:49;;;;;;;6.38;5.75;;;9.60;99.90;;;10.44;100.00;95576.16;10400071;28;20733;-68
2024/04/01 05:50:52;;;;;;;6.85;3.70;;;9.70;99.90;;;10.61;100.00;95617.38;10399038;28;20231;-68
2024/04/01 05:55:56;;;;;;;5.80;4.15;;;9.80;99.90;;;10.69;100.00;95643.94;10406123;28;20367;-68
2024/04/01 06:01:00;;;;;;;5.85;4.15;;;9.90;99.90;;;10.97;100.00;95647.06;10414773;28;20324;-68
2024/04/01 06:06:02;;;;;;;6.63;4.70;;;10.10;99.90;;;10.81;100.00;95644.19;10423258;28;20339;-68
2024/04/01 06:11:05;;;;;;;6.22;4.40;;;10.10;99.90;;;10.89;100.00;95669.91;10408473;28;20378;-67
2024/04/01 06:16:08;;;;;;;5.82;4.88;;;10.20;99.90;;;10.90;100.00;95666.53;10410706;28;20319;-70
2024/04/01 06:21:10;;;;;;;5.88;5.47;;;10.20;99.90;;;10.94;100.00;95681.09;10420324;28;20229;-68
2024/04/01 06:26:14;;;;;;;6.97;6.22;;;10.20;99.90;;;11.01;100.00;95734.03;10423564;28;20511;-68
2024/04/01 06:31:16;;;;;;;8.27;7.07;;;10.20;99.90;;;10.87;100.00;95749.91;10423316;28;20327;-68
2024/04/01 06:36:19;;;;;;;8.48;7.55;;;10.20;99.90;;;10.83;100.00;95749.84;10403826;28;20309;-69
2024/04/01 06:41:22;;;;;;;8.82;7.93;;;10.10;99.90;;;10.85;100.00;95747.34;10411390;28;20352;-67
2024/04/01 06:46:25;;;;;;;9.25;8.40;;;10.20;99.90;;;10.91;100.00;95762.81;10410143;28;20312;-67
2024/04/01 06:51:27;;;;;;;9.32;7.82;;;10.20;99.90;;;10.91;100.00;95779.84;10406282;28;20340;-68
2024/04/01 06:56:30;;;;;;;8.90;8.05;;;10.30;99.90;;;10.95;100.00;95781.63;10423045;28;20304;-66
2024/04/01 07:01:33;;;;;;;9.23;8.35;;;10.30;99.90;;;10.98;100.00;95771.47;10413163;28;20315;-66
2024/04/01 07:06:35;;;;;;;8.40;7.63;;;10.20;99.90;;;10.78;100.00;95773.59;10399362;28;20312;-66
2024/04/01 07:11:38;;;;;;;8.00;7.30;;;10.20;99.90;;;10.80;100.00;95785.56;10399081;28;20697;-67
2024/04/01 07:16:40;;;;;;;8.23;7.43;;;10.10;99.90;;;10.83;100.00;95815.44;10421769;28;20325;-67
2024/04/01 07:21:42;;;;;;;7.57;6.97;;;10.10;99.90;;;10.89;100.00;95799.38;10401431;28;21683;-67
2024/04/01 07:26:46;;;;;;;7.85;7.25;;;10.10;99.90;;;10.71;100.00;95789.63;10420708;28;20312;-67
2024/04/01 07:31:48;;;;;;;7.50;6.90;;;10.00;99.90;;;10.64;100.00;95811.59;10412540;28;20303;-66
2024/04/01 07:36:50;;;;;;;8.13;7.53;;;10.00;99.90;;;10.64;100.00;95821.81;10412921;28;20308;-67
2024/04/01 07:41:54;;;;;;;9.50;8.60;;;10.00;99.90;;;10.58;100.00;95839.53;10415196;28;21077;-67
2024/04/01 07:46:56;;;;;;;9.18;8.38;;;10.00;99.90;;;10.73;100.00;95859.47;10427757;28;20295;-66
2024/04/01 07:51:58;;;;;;;8.88;8.13;;;10.00;99.90;;;10.70;100.00;95890.97;10414090;28;20340;-66
2024/04/01 07:57:02;;;;;;;6.65;6.18;;;10.00;99.90;;;10.68;100.00;95907.94;10414058;28;20788;-67
2024/04/01 08:02:05;;;;;;;7.05;6.55;;;10.00;99.90;;;10.69;100.00;95893.47;10398453;28;20231;-65
2024/04/01 08:07:07;;;;;;;6.18;5.78;;;10.10;99.90;;;10.78;100.00;95909.88;10399280;28;20212;-66
2024/04/01 08:12:11;;;;;;;5.20;4.80;;;10.10;99.90;;;10.88;100.00;95933.13;10409450;28;20316;-70
2024/04/01 08:17:13;;;;;;;4.68;4.20;;;10.20;99.90;;;10.94;100.00;95963.94;10417831;28;20340;-67
2024/04/01 08:22:16;;;;;;;4.38;2.92;;;10.20;99.90;;;11.11;100.00;95980.56;10403387;28;20316;-67
2024/04/01 08:27:19;;;;;;;2.90;2.58;;;10.30;99.90;;;11.12;100.00;96004.44;10403471;28;20320;-67
2024/04/01 08:32:21;;;;;;;2.88;2.22;;;10.40;99.90;;;10.98;100.00;95999.81;10405860;28;20339;-68
2024/04/01 08:37:23;;;;;;;3.92;2.38;;;10.50;99.90;;;10.87;100.00;96015.72;10402741;28;20325;-68
2024/04/01 08:42:29;;;;;;;2.33;2.17;;;10.40;99.90;;;11.07;100.00;96042.66;10404218;28;20308;-68
2024/04/01 08:47:37;;;;;;;3.30;1.88;;;10.60;99.90;;;11.03;100.00;96035.75;10410777;28;22338;-68
2024/04/01 08:52:49;;;;;;;2.17;1.92;;;10.50;99.90;;;11.07;100.00;96040.09;10410519;28;20619;-66
2024/04/01 08:57:53;;;;;;;2.05;1.80;;;10.40;99.90;;;11.16;100.00;96045.47;10421270;28;20744;-65
2024/04/01 09:02:55;;;;;;;2.25;1.80;;;10.60;99.90;;;11.13;100.00;96040.28;10396966;28;20317;-67
2024/04/01 09:07:58;;;;;;;2.20;1.90;;;10.70;99.90;;;11.31;100.00;96059.47;10400528;28;20308;-66
2024/04/01 09:13:03;;;;;;;1.80;1.70;;;10.80;99.90;;;11.46;100.00;96067.50;10397350;28;20332;-68
2024/04/01 09:18:11;;;;;;;3.42;1.90;;;11.00;99.90;;;11.58;100.00;96079.72;10398145;28;20344;-67
2024/04/01 09:23:13;;;;;;;2.25;1.40;;;11.00;99.90;;;11.78;100.00;96096.41;10397836;28;20793;-69
2024/04/01 09:28:17;;;;;;;2.58;1.50;;;11.20;99.90;;;11.74;100.00;96086.94;10417989;28;20810;-67
2024/04/01 09:33:20;;;;;;;2.45;1.70;;;11.30;99.90;;;11.87;100.00;96098.34;10416880;28;20315;-68
2024/04/01 09:38:22;;;;;;;1.80;1.48;;;11.40;99.90;;;12.04;100.00;96107.28;10422102;28;20243;-69
2024/04/01 09:43:26;;;;;;;1.50;1.40;;;11.40;99.90;;;12.03;100.00;96108.13;10407727;28;20467;-68
2024/04/01 09:48:30;;;;;;;1.00;1.00;;;11.40;99.90;;;12.26;100.00;96121.44;10403786;28;20225;-68
2024/04/01 09:53:32;;;;;;;1.10;1.10;;;11.60;99.90;;;12.34;100.00;96121.63;10400231;28;20618;-71
2024/04/01 09:59:06;;;;;;;1.25;1.20;;;11.70;99.90;;;12.49;100.00;96131.34;10418035;22;20311;-72
2024/04/01 10:05:09;;;;;;;1.42;1.33;;;11.80;99.90;;;12.57;100.00;96146.06;10304224;28;20215;-70
2024/04/01 10:10:45;;;;;;;1.10;1.10;;;11.70;99.90;;;12.42;100.00;96158.53;10240856;28;20758;-69
2024/04/01 10:16:22;;;;;;;2.47;1.30;;;11.60;99.90;;;12.27;100.00;96145.38;10299939;28;20962;-71
2024/04/01 10:22:10;;;;;;;0.88;0.88;;;11.60;99.90;;;12.09;92.03;96146.69;10310486;28;20325;-69
2024/04/01 10:27:51;;;;;;;1.20;1.20;;;11.50;99.90;;;12.00;91.69;96174.63;10309594;28;20352;-69
2024/04/01 10:33:26;;;;;;;1.33;1.13;;;11.70;99.90;;;12.04;90.08;96186.66;10325903;28;20251;-68
2024/04/01 10:39:20;;;;;;;1.35;1.23;;;11.60;99.90;;;12.30;91.48;96191.53;10314942;28;20416;-69
2024/04/01 10:45:19;;;;;;;1.00;1.00;;;11.80;99.90;;;12.31;86.32;96190.75;10313930;28;20664;-69
2024/04/01 10:51:17;;;;;;;1.10;1.10;;;11.90;99.90;;;12.25;87.05;96213.66;10292631;28;20318;-69
2024/04/01 10:57:21;;;;;;;1.25;1.15;;;11.70;99.90;;;12.44;83.89;96210.66;10313509;28;20672;-69
2024/04/01 11:03:23;;;;;;;2.00;1.33;;;11.90;99.90;;;12.27;79.78;96223.06;10313363;28;20318;-71
2024/04/01 11:08:37;;;;;;;0.90;0.90;;;11.90;99.90;;;12.10;78.33;96243.19;10298264;28;22019;-69
2024/04/01 11:13:40;;;;;;;1.00;1.00;;;11.80;99.90;;;12.01;77.67;96240.38;10295702;28;20310;-70
2024/04/01 11:18:53;;;;;;;1.20;1.00;;;11.70;99.90;;;12.16;77.91;96255.25;10310107;28;20588;-70
2024/04/01 11:24:14;;;;;;;1.52;1.52;;;11.80;99.90;;;12.22;76.89;96268.22;10297277;28;20222;-68
2024/04/01 11:29:49;;;;;;;0.90;0.90;;;11.80;99.90;;;12.35;78.09;96292.44;10306090;28;20293;-69
2024/04/01 11:35:06;;;;;;;0.73;0.73;;;11.90;99.90;;;12.56;76.36;96279.28;10308207;28;20231;-70
2024/04/01 11:40:13;;;;;;;1.00;1.00;;;12.10;99.90;;;12.70;76.28;96307.81;10303468;28;20791;-68
2024/04/01 11:45:19;;;;;;;1.00;1.00;;;12.20;99.90;;;12.61;72.49;96319.56;10296418;28;20237;-68
2024/04/01 11:50:23;;;;;;;0.90;0.90;;;12.20;99.90;;;12.41;74.68;96351.53;10302063;28;20342;-69
2024/04/01 11:55:27;;;;;;;0.90;0.90;;;11.80;99.90;;;12.17;75.91;96360.31;10310447;28;20231;-69
2024/04/01 12:00:30;;;;;;;1.02;0.93;;;11.70;99.90;;;11.92;75.58;96365.59;10308869;28;20226;-69
2024/04/01 12:05:33;;;;;;;1.00;1.00;;;11.50;99.90;;;11.85;78.28;96381.59;10307576;28;20234;-68
2024/04/01 12:10:37;;;;;;;1.45;1.00;;;11.30;99.90;;;11.89;77.56;96384.31;10311545;28;20241;-68
2024/04/01 12:15:40;;;;;;;0.90;0.90;;;11.30;99.90;;;11.93;75.65;96385.25;10310913;28;20317;-69
2024/04/01 12:20:42;;;;;;;1.02;1.02;;;11.40;99.90;;;12.20;74.67;96397.09;10293595;28;20231;-69
2024/04/01 12:25:46;;;;;;;1.10;1.10;;;11.50;99.90;;;12.14;74.68;96424.28;10286710;28;20231;-69
2024/04/01 12:30:52;;;;;;;1.08;1.08;;;11.50;99.90;;;12.09;77.19;96413.03;10292560;28;20760;-69
2024/04/01 12:35:54;;;;;;;0.98;0.98;;;11.40;99.90;;;12.07;75.19;96424.06;10312444;28;20972;-69
2024/04/01 12:41:00;;;;;;;1.13;1.02;;;11.40;99.90;;;12.09;76.27;96441.19;10292450;28;20229;-69
2024/04/01 12:46:04;;;;;;;1.10;1.10;;;11.30;99.90;;;12.11;74.44;96456.63;10304156;28;21959;-70
2024/04/01 12:51:07;;;;;;;0.93;0.93;;;11.30;99.90;;;12.32;71.55;96456.34;10290093;28;20880;-69
2024/04/01 12:56:26;;;;;;;1.10;1.10;;;11.40;99.90;;;12.26;70.39;96466.41;10290750;28;20226;-69
2024/04/01 13:01:48;;;;;;;1.05;1.05;;;11.60;99.90;;;12.42;70.52;96488.19;10310405;28;20231;-70
2024/04/01 13:07:00;;;;;;;0.90;0.90;;;11.50;99.90;;;12.67;70.35;96489.72;10291173;28;20247;-69
2024/04/01 13:12:25;;;;;;;1.13;1.10;;;11.70;99.90;;;12.75;67.22;96493.38;10306088;28;20568;-70
2024/04/01 13:17:39;;;;;;;1.00;1.00;;;12.00;99.90;;;13.07;66.81;96477.09;10299673;28;20314;-69
2024/04/01 13:22:47;;;;;;;1.13;1.10;;;12.30;99.90;;;13.17;67.83;96461.97;10319492;28;20310;-68
2024/04/01 13:28:00;;;;;;;1.40;1.02;;;12.40;99.90;;;13.37;65.94;96453.06;10286335;28;20235;-68
2024/04/01 13:33:04;;;;;;;1.10;1.00;;;12.60;99.90;;;13.49;65.48;96455.91;10309133;28;20782;-69
2024/04/01 13:38:25;;;;;;;0.85;0.85;;;12.80;99.90;;;13.38;64.30;96488.16;10307952;28;20218;-69
2024/04/01 13:43:43;;;;;;;1.10;1.10;;;12.80;99.90;;;13.27;63.84;96504.97;10292011;28;20231;-69
2024/04/01 13:49:08;;;;;;;1.05;1.05;;;12.90;99.90;;;13.33;63.27;96528.22;10294335;28;20314;-69
2024/04/01 13:54:24;;;;;;;1.13;1.10;;;12.80;99.90;;;12.96;63.13;96536.66;10317520;28;20655;-69
2024/04/01 13:59:36;;;;;;;0.98;0.82;;;12.40;99.90;;;12.79;64.62;96536.19;10318979;28;20345;-69
2024/04/01 14:05:13;;;;;;;2.70;2.50;;;12.20;99.90;;;12.81;63.91;96544.81;10303563;28;20319;-69
2024/04/01 14:10:29;;;;;;;1.60;1.38;;;12.20;99.90;;;12.88;63.51;96551.88;10315430;28;20330;-69
2024/04/01 14:15:40;;;;;;;5.68;5.07;;;12.30;99.90;;;12.99;61.68;96573.53;10300999;28;20227;-69
2024/04/01 14:20:45;;;;;;;1.80;1.70;;;12.50;99.90;;;12.91;62.59;96592.97;10314380;28;20722;-69
2024/04/01 14:25:49;;;;;;;2.42;2.22;;;12.30;99.90;;;12.89;61.71;96592.06;10308515;28;20229;-69
2024/04/01 14:30:53;;;;;;;1.85;1.75;;;12.10;99.90;;;12.93;61.00;96596.44;10311036;28;20231;-69
2024/04/01 14:35:56;;;;;;;2.40;2.30;;;12.10;99.90;;;12.84;63.09;96606.44;10318723;28;20350;-69
2024/04/01 14:40:58;;;;;;;1.10;1.00;;;12.10;99.90;;;12.90;62.32;96616.00;10294692;28;20237;-69
2024/04/01 14:46:02;;;;;;;1.13;1.13;;;12.00;99.90;;;12.82;62.32;96614.09;10311790;28;20226;-69
2024/04/01 14:51:04;;;;;;;1.38;1.27;;;11.90;99.90;;;12.93;61.46;96619.50;10296388;28;20231;-69
2024/04/01 14:56:07;;;;;;;1.00;1.00;;;12.10;99.90;;;13.11;61.15;96614.03;10309116;28;20226;-69
2024/04/01 15:01:10;;;;;;;1.10;1.10;;;12.30;99.90;;;13.22;60.02;96606.59;10292650;28;20231;-69
2024/04/01 15:06:13;;;;;;;1.20;1.20;;;12.30;99.90;;;13.33;59.96;96627.44;10285792;28;20237;-69
2024/04/01 15:11:15;;;;;;;1.23;1.23;;;12.50;99.90;;;13.40;60.79;96626.78;10294273;28;20238;-69
2024/04/01 15:16:19;;;;;;;1.30;1.20;;;12.50;99.90;;;13.34;59.06;96624.94;10293768;28;20238;-69
2024/04/01 15:21:21;;;;;;;1.20;1.20;;;12.50;99.90;;;13.44;56.95;96637.16;10308234;28;20231;-69
2024/04/01 15:26:24;;;;;;;1.13;1.13;;;12.50;99.90;;;13.45;57.88;96641.50;10306336;28;21859;-69
2024/04/01 15:31:29;;;;;;;1.10;0.82;;;12.50;99.90;;;13.48;55.48;96644.13;10292509;28;20238;-69
2024/04/01 15:36:31;;;;;;;0.80;0.80;;;12.60;99.90;;;13.39;57.52;96641.34;10308149;28;20223;-69
2024/04/01 15:41:34;;;;;;;0.93;0.93;;;12.50;99.90;;;13.31;57.82;96635.13;10308595;28;20231;-68
2024/04/01 15:46:40;;;;;;;1.08;0.90;;;12.30;99.90;;;13.16;58.47;96625.28;10293078;28;20227;-69
2024/04/01 15:51:44;;;;;;;0.93;0.93;;;12.20;99.90;;;12.98;60.49;96620.50;10287769;28;20341;-69
2024/04/01 15:56:52;;;;;;;1.38;1.27;;;12.10;99.90;;;12.81;60.81;96626.88;10311063;28;20237;-68
2024/04/01 16:01:55;;;;;;;1.10;0.98;;;11.90;99.90;;;12.74;61.49;96635.22;10349487;23;20576;-69
2024/04/01 16:06:59;;;;;;;1.23;0.93;;;11.90;99.90;;;12.72;62.15;96637.72;10399610;28;20317;-68
2024/04/01 16:12:02;;;;;;;1.02;1.02;;;11.90;99.90;;;12.67;62.47;96639.28;10352390;28;20345;-69
2024/04/01 16:17:06;;;;;;;1.13;1.00;;;11.70;99.90;;;12.47;62.78;96642.97;10329454;28;20226;-68
2024/04/01 16:22:11;;;;;;;0.93;0.93;;;11.50;99.90;;;12.54;63.10;96638.06;10344745;28;20725;-69
2024/04/01 16:27:20;;;;;;;0.90;0.90;;;11.60;99.90;;;12.40;63.49;96639.34;10327556;28;20244;-69
2024/04/01 16:32:23;;;;;;;24.98;17.63;;;11.50;99.90;;;12.44;63.41;96646.31;10326238;28;20238;-68
2024/04/01 16:37:26;;;;;;;6.55;5.40;;;11.50;99.90;;;12.26;64.53;96640.63;10344347;28;20227;-68
2024/04/01 16:42:32;;;;;;;1.80;1.70;;;11.30;99.90;;;12.23;65.20;96643.97;10326784;28;20241;-68
2024/04/01 16:47:35;;;;;;;1.80;1.70;;;11.20;99.90;;;12.10;65.42;96644.41;10339133;28;20321;-68
2024/04/01 16:52:39;;;;;;;2.58;2.38;;;11.20;99.90;;;11.86;67.19;96650.47;10325432;28;20234;-68
2024/04/01 16:57:44;;;;;;;2.58;2.38;;;11.10;99.90;;;11.94;67.51;96653.31;10341436;28;20222;-68
2024/04/01 17:02:49;;;;;;;2.50;2.40;;;11.00;99.90;;;11.88;67.27;96660.78;10359254;28;20718;-68
2024/04/01 17:07:52;;;;;;;1.50;1.50;;;11.00;99.90;;;11.89;68.33;96657.41;10327189;28;20317;-68
2024/04/01 17:12:54;;;;;;;1.40;1.33;;;11.00;99.90;;;11.89;68.41;96663.38;10322943;28;20360;-68
2024/04/01 17:17:58;;;;;;;1.30;1.20;;;10.90;99.90;;;11.80;68.66;96670.75;10342950;28;20709;-67
2024/04/01 17:23:03;;;;;;;1.52;1.42;;;10.90;99.90;;;11.74;68.97;96673.09;10322905;28;20334;-68
2024/04/01 17:28:09;;;;;;;1.60;1.50;;;10.80;99.90;;;11.67;70.87;96674.56;10333448;28;20337;-68
2024/04/01 17:33:12;;;;;;;2.38;2.17;;;10.80;99.90;;;11.64;71.50;96671.03;10341551;28;20687;-68
2024/04/01 17:38:15;;;;;;;2.20;2.10;;;10.80;99.90;;;11.53;74.77;96672.38;10336208;28;20321;-68
2024/04/01 17:43:18;;;;;;;2.42;2.05;;;10.70;99.90;;;11.48;76.89;96674.78;10329187;28;20747;-68
2024/04/01 17:48:23;;;;;;;4.50;4.20;;;10.60;99.90;;;11.43;77.04;96678.88;10316368;28;20321;-68
2024/04/01 17:53:26;;;;;;;3.10;2.90;;;10.60;99.90;;;11.36;78.44;96679.47;10348639;28;20236;-68
2024/04/01 17:58:34;;;;;;;1.70;1.60;;;10.50;99.90;;;11.30;78.37;96681.81;10357730;28;20325;-68
2024/04/01 18:03:39;;;;;;;1.75;1.70;;;10.40;99.90;;;11.21;78.51;96677.25;10357196;28;20862;-67
2024/04/01 18:08:41;;;;;;;2.40;2.20;;;10.30;99.90;;;11.14;80.51;96694.06;10345587;28;20227;-68
2024/04/01 18:13:43;;;;;;;2.97;2.78;;;10.30;99.90;;;11.12;81.56;96698.25;10337865;28;20245;-68
2024/04/01 18:18:47;;;;;;;3.17;2.97;;;10.30;99.90;;;11.00;80.32;96703.78;10351269;28;20309;-68
2024/04/01 18:23:51;;;;;;;3.22;2.95;;;10.20;99.90;;;11.01;81.72;96700.41;10338197;28;20752;-68
2024/04/01 18:28:53;;;;;;;4.05;3.75;;;10.20;99.90;;;10.98;82.36;96715.63;10335991;28;20227;-68
2024/04/01 18:33:57;;;;;;;3.72;3.30;;;10.20;99.90;;;10.98;82.40;96736.09;10326804;28;20694;-68
2024/04/01 18:39:00;;;;;;;3.78;3.47;;;10.10;99.90;;;10.95;84.44;96741.09;10330266;28;20520;-68
2024/04/01 18:44:02;;;;;;;2.92;2.70;;;10.10;99.90;;;10.93;83.84;96747.84;10344796;28;20615;-68
2024/04/01 18:49:05;;;;;;;2.80;2.60;;;10.10;99.90;;;10.89;83.20;96755.34;10337056;28;20222;-68
2024/04/01 18:54:16;;;;;;;2.80;2.60;;;10.10;99.90;;;10.91;82.23;96753.72;10346471;28;20230;-70
2024/04/01 18:59:18;;;;;;;2.65;2.45;;;10.10;99.90;;;10.93;81.71;96758.09;10350283;28;20237;-69
2024/04/01 19:04:22;;;;;;;3.90;2.72;;;10.00;99.90;;;10.79;82.45;96755.00;10334054;28;20709;-67
2024/04/01 19:09:26;;;;;;;3.20;2.97;;;10.00;99.90;;;10.77;85.10;96763.41;10345260;28;20677;-68
2024/04/01 19:14:28;;;;;;;2.97;2.78;;;10.00;99.90;;;10.72;83.52;96763.22;10349008;28;20305;-68
2024/04/01 19:19:32;;;;;;;2.50;2.40;;;9.90;99.90;;;10.76;83.11;96772.78;10317261;28;20229;-67
2024/04/01 19:24:34;;;;;;;2.00;1.90;;;10.00;99.90;;;10.81;83.95;96778.91;10337188;28;20242;-68
2024/04/01 19:29:36;;;;;;;2.28;2.08;;;10.00;99.90;;;10.78;83.74;96785.59;10340748;28;20672;-68
2024/04/01 19:34:40;;;;;;;2.28;2.17;;;9.90;99.90;;;10.76;84.34;96788.09;10329618;28;20713;-68
2024/04/01 19:39:43;;;;;;;2.30;2.20;;;9.90;99.90;;;10.68;83.20;96803.97;10343390;28;20237;-68
2024/04/01 19:44:45;;;;;;;2.03;1.92;;;9.90;99.90;;;10.64;83.13;96789.28;10336409;28;20293;-67
2024/04/01 19:49:48;;;;;;;8.70;6.18;;;9.90;99.90;;;10.76;81.29;96800.88;10353021;28;20337;-68
2024/04/01 19:54:52;;;;;;;6.78;5.68;;;9.90;99.90;;;10.65;81.69;96803.84;10357353;28;20316;-67
2024/04/01 19:59:54;;;;;;;8.70;6.03;;;9.80;99.90;;;10.59;81.43;96801.91;10332055;28;20285;-68
2024/04/01 20:05:01;;;;;;;16.83;10.43;;;9.80;99.90;;;10.52;81.21;96794.78;10339133;28;20306;-68
2024/04/01 20:10:11;;;;;;;2.95;2.63;;;9.80;99.90;;;10.51;81.31;96808.41;10356843;28;20313;-70
2024/04/01 20:15:14;;;;;;;3.28;2.70;;;9.70;99.90;;;10.55;82.58;96810.25;10311669;28;20674;-68
2024/04/01 20:20:19;;;;;;;2.10;1.95;;;9.80;99.90;;;10.56;81.40;96812.88;10308116;28;20245;-67
2024/04/01 20:25:22;;;;;;;11.40;9.98;;;9.80;99.90;;;10.57;81.81;96813.75;10331295;28;20807;-67
2024/04/01 20:30:32;;;;;;;3.55;3.25;;;9.80;99.90;;;10.67;80.59;96815.84;10311561;28;20230;-67
2024/04/01 20:35:36;;;;;;;3.30;3.00;;;9.80;99.90;;;10.64;80.61;96820.81;10330058;28;20309;-68
2024/04/01 20:40:38;;;;;;;3.40;3.10;;;9.90;99.90;;;10.68;80.13;96817.59;10339274;28;20239;-68
2024/04/01 20:45:40;;;;;;;1.90;1.80;;;9.90;99.90;;;10.56;80.76;96817.13;10340223;28;20309;-68
2024/04/01 20:50:49;;;;;;;1.90;1.80;;;9.80;99.90;;;10.59;80.79;96817.25;10357283;28;20346;-67
2024/04/01 20:55:51;;;;;;;1.38;1.27;;;9.90;99.90;;;10.70;79.81;96816.00;10330108;28;20277;-68
2024/04/01 21:00:54;;;;;;;1.77;1.67;;;9.90;99.90;;;10.68;79.19;96822.72;10345182;28;20232;-68
2024/04/01 21:05:58;;;;;;;1.60;1.50;;;9.90;99.90;;;10.51;79.25;96829.69;10332309;28;20230;-68
2024/04/01 21:11:00;;;;;;;1.73;1.52;;;9.80;99.90;;;10.40;79.52;96835.19;10348583;28;20238;-68
2024/04/01 21:16:02;;;;;;;2.03;1.80;;;9.60;99.90;;;10.35;80.64;96828.19;10288152;28;20235;-67